Harare, Zimbabwe
Current Conditions -  °F | °C
As of 5:00 PM on Monday 24 Nov 2014 (Local Time) from FVHA Reporting Station
Clear Clear  
Wind Chill: 86°   Ceiling: Unl
Heat Index: 86°   Visibility: 6mi
Dew Point: 46°   Wind: 10mph
Humidity: 25%   Direction: 140°SE
Pressure: 30.09"   Gusts: NA
Location:  17.82°S, 31.05°E
Report Text: FVHA 241500Z 14009KT 100V170 CAVOK 30/08 Q1019 NOSIG
Loading
Personal Weather Stations






























Interactive Weather Map New forecast layout! Learn more

10-Day Weather Forecast

Advertisements
Track Severe Weather on mobile